Time;durP1;ratioP1;P1;durP2;ratioP2;P2;SDS_P1;SDS_P2;PMS_P1;PMS_P2;Temp;Humidity;BMP_temperature;BMP_pressure;BME280_temperature;BME280_humidity;BME280_pressure;Samples;Min_cycle;Max_cycle;Signal;HPM_P1;HPM_P2
2024/01/19 00:00:14;;;;;;;0.52;0.30;;;26.90;71.40;;;;;;5081564;28;20333;-75
2024/01/19 00:02:45;;;;;;;0.45;0.20;;;27.00;72.00;;;;;;5046958;28;20207;-75
2024/01/19 00:05:18;;;;;;;0.80;0.35;;;27.10;71.40;;;;;;5056250;28;20215;-75
2024/01/19 00:07:49;;;;;;;2.03;0.60;;;27.00;70.80;;;;;;5060014;28;20615;-75
2024/01/19 00:10:22;;;;;;;1.48;0.43;;;27.00;70.20;;;;;;5050402;28;20213;-76
2024/01/19 00:12:52;;;;;;;0.88;0.32;;;27.00;70.90;;;;;;5084341;28;20324;-76
2024/01/19 00:15:23;;;;;;;0.82;0.40;;;27.00;71.10;;;;;;5086931;28;20195;-76
2024/01/19 00:17:54;;;;;;;1.48;0.43;;;27.00;70.40;;;;;;5063713;28;20227;-75
2024/01/19 00:20:25;;;;;;;0.85;0.32;;;27.10;70.10;;;;;;5066929;28;20299;-74
2024/01/19 00:22:56;;;;;;;1.55;0.50;;;27.20;71.60;;;;;;5066219;28;20194;-75
2024/01/19 00:25:28;;;;;;;0.55;0.30;;;27.30;70.90;;;;;;5069807;28;20211;-75
2024/01/19 00:27:59;;;;;;;2.00;0.38;;;27.30;66.40;;;;;;5053329;28;20193;-75
2024/01/19 00:30:30;;;;;;;1.55;0.50;;;27.20;68.30;;;;;;5057463;28;20188;-75
2024/01/19 00:33:04;;;;;;;1.98;0.50;;;27.20;68.30;;;;;;5088982;28;20199;-75
2024/01/19 00:35:34;;;;;;;0.70;0.40;;;27.20;68.20;;;;;;5089855;28;20219;-76
2024/01/19 00:38:05;;;;;;;3.05;0.40;;;27.20;68.40;;;;;;5078595;28;20222;-75
2024/01/19 00:40:38;;;;;;;1.67;0.40;;;27.30;70.80;;;;;;5050679;28;20235;-75
2024/01/19 00:43:08;;;;;;;1.63;0.40;;;27.40;72.30;;;;;;5057179;28;20195;-75
2024/01/19 00:45:39;;;;;;;1.10;0.50;;;27.60;72.50;;;;;;5069498;28;20299;-75
2024/01/19 00:48:10;;;;;;;2.70;0.50;;;27.60;71.80;;;;;;5066896;28;20271;-75
2024/01/19 00:50:41;;;;;;;3.00;0.70;;;27.70;71.90;;;;;;5069644;28;20277;-75
2024/01/19 00:53:12;;;;;;;1.45;0.45;;;27.60;82.20;;;;;;5051156;28;20212;-75
2024/01/19 00:55:44;;;;;;;1.45;0.50;;;27.60;83.90;;;;;;5051191;28;20193;-75
2024/01/19 00:58:15;;;;;;;3.22;0.60;;;27.50;83.10;;;;;;5054558;28;20276;-74
2024/01/19 01:00:46;;;;;;;2.90;0.40;;;27.60;85.20;;;;;;5073736;28;20572;-74
2024/01/19 01:03:25;;;;;;;1.33;0.40;;;27.40;86.40;;;;;;5058233;28;20218;-75
2024/01/19 01:05:58;;;;;;;2.35;0.57;;;27.20;87.90;;;;;;5060134;28;20208;-75
2024/01/19 01:08:29;;;;;;;1.85;0.60;;;27.20;88.80;;;;;;5062707;28;20215;-75
2024/01/19 01:11:02;;;;;;;1.45;0.47;;;27.10;87.60;;;;;;5053561;28;20199;-74
2024/01/19 01:13:33;;;;;;;2.80;0.70;;;27.20;86.20;;;;;;5071204;28;20220;-75
2024/01/19 01:16:04;;;;;;;3.33;0.73;;;27.30;87.20;;;;;;5072535;28;20644;-74
2024/01/19 01:18:35;;;;;;;2.40;0.50;;;27.40;88.60;;;;;;5073011;28;20306;-76
2024/01/19 01:21:06;;;;;;;1.35;0.50;;;27.50;87.30;;;;;;5076922;28;20572;-76
2024/01/19 01:23:37;;;;;;;1.55;0.40;;;27.50;85.80;;;;;;5093189;28;20226;-76
2024/01/19 01:26:09;;;;;;;0.88;0.30;;;27.50;85.20;;;;;;5060384;28;20223;-76
2024/01/19 01:28:40;;;;;;;1.08;0.40;;;27.60;84.60;;;;;;5052935;28;20204;-76
2024/01/19 01:31:11;;;;;;;1.15;0.30;;;27.70;85.70;;;;;;5065554;28;20251;-76
2024/01/19 01:33:41;;;;;;;2.00;0.52;;;27.70;85.40;;;;;;5072843;28;20195;-76
2024/01/19 01:36:12;;;;;;;1.95;0.43;;;27.60;82.30;;;;;;5088404;28;20236;-76
2024/01/19 01:38:43;;;;;;;3.95;0.55;;;27.60;81.80;;;;;;5091209;28;20233;-76
2024/01/19 01:41:16;;;;;;;1.48;0.40;;;27.60;82.70;;;;;;5087603;28;20215;-76
2024/01/19 01:43:46;;;;;;;2.65;0.40;;;27.60;81.70;;;;;;5084990;28;20571;-77
2024/01/19 01:46:17;;;;;;;2.10;0.43;;;27.50;81.30;;;;;;5061947;28;20216;-76
2024/01/19 01:48:48;;;;;;;2.90;0.45;;;27.50;79.80;;;;;;5064567;28;20218;-76
2024/01/19 01:51:20;;;;;;;1.83;0.60;;;27.70;82.20;;;;;;5077864;28;20211;-76
2024/01/19 01:53:51;;;;;;;2.33;0.52;;;27.80;81.60;;;;;;5086940;28;20196;-76
2024/01/19 01:56:23;;;;;;;1.33;0.47;;;27.90;80.90;;;;;;5072075;28;20745;-75
2024/01/19 01:58:54;;;;;;;1.70;0.60;;;28.00;79.90;;;;;;5066857;28;20230;-76
2024/01/19 02:01:25;;;;;;;1.00;0.40;;;28.00;79.60;;;;;;5060671;28;20576;-76
2024/01/19 02:03:58;;;;;;;1.25;0.32;;;28.00;80.80;;;;;;5070380;28;20224;-76
2024/01/19 02:06:30;;;;;;;2.53;0.50;;;28.10;80.20;;;;;;5081542;28;20694;-75
2024/01/19 02:09:01;;;;;;;1.70;0.40;;;28.10;77.70;;;;;;5075844;28;20227;-76
2024/01/19 02:11:34;;;;;;;2.20;0.40;;;28.10;76.00;;;;;;5088755;28;20195;-76
2024/01/19 02:14:05;;;;;;;1.75;0.50;;;28.00;77.30;;;;;;5091629;28;20305;-76
2024/01/19 02:16:36;;;;;;;0.88;0.30;;;28.00;76.00;;;;;;5086737;28;20665;-76
2024/01/19 02:19:07;;;;;;;0.80;0.32;;;28.10;77.00;;;;;;5091463;28;20238;-75
2024/01/19 02:21:38;;;;;;;3.17;0.60;;;28.20;75.60;;;;;;5051877;28;20217;-75
2024/01/19 02:24:14;;;;;;;1.90;0.40;;;28.10;75.00;;;;;;5059763;28;20191;-76
2024/01/19 02:26:45;;;;;;;1.55;0.32;;;28.10;74.60;;;;;;5052361;28;20283;-76
2024/01/19 02:29:16;;;;;;;1.45;0.40;;;28.10;76.30;;;;;;5077327;28;20219;-77
2024/01/19 02:31:47;;;;;;;0.43;0.20;;;28.00;75.30;;;;;;5087215;28;20216;-76
2024/01/19 02:34:18;;;;;;;0.75;0.38;;;27.90;74.80;;;;;;5060051;28;20218;-76
2024/01/19 02:36:49;;;;;;;3.38;0.55;;;27.90;76.10;;;;;;5071388;28;20206;-76
2024/01/19 02:39:21;;;;;;;1.92;0.40;;;28.00;75.90;;;;;;5062396;28;20212;-77
2024/01/19 02:41:52;;;;;;;1.70;0.32;;;28.10;73.60;;;;;;5061105;28;20202;-77
2024/01/19 02:44:23;;;;;;;2.45;0.60;;;28.20;75.60;;;;;;5058330;28;20556;-77
2024/01/19 02:46:54;;;;;;;3.17;0.50;;;28.20;75.50;;;;;;5053952;28;20562;-75
2024/01/19 02:49:24;;;;;;;2.13;0.52;;;28.20;75.10;;;;;;5051070;28;20280;-74
2024/01/19 02:51:55;;;;;;;2.35;0.38;;;28.30;73.50;;;;;;5060769;28;20705;-75
2024/01/19 02:54:28;;;;;;;1.27;0.50;;;28.40;75.00;;;;;;5077849;28;20200;-75
2024/01/19 02:56:58;;;;;;;1.77;1.10;;;28.40;71.40;;;;;;5072020;28;20223;-75
2024/01/19 02:59:30;;;;;;;1.02;0.57;;;28.50;70.30;;;;;;5051228;28;20203;-75
2024/01/19 03:02:03;;;;;;;2.67;0.55;;;28.50;70.60;;;;;;5051082;28;20197;-75
2024/01/19 03:04:34;;;;;;;2.63;0.52;;;28.50;70.10;;;;;;5077844;28;20215;-76
2024/01/19 03:07:05;;;;;;;1.10;0.43;;;28.50;74.20;;;;;;5092356;28;20223;-76
2024/01/19 03:09:37;;;;;;;1.70;0.50;;;28.40;76.50;;;;;;5080950;28;20211;-77
2024/01/19 03:12:09;;;;;;;2.67;0.40;;;28.40;78.70;;;;;;5066683;28;20205;-76
2024/01/19 03:14:40;;;;;;;3.80;0.57;;;28.50;76.30;;;;;;5056487;28;20217;-77
2024/01/19 03:17:11;;;;;;;2.30;0.50;;;28.40;75.60;;;;;;5051070;28;20639;-77
2024/01/19 03:19:41;;;;;;;0.68;0.43;;;28.30;75.70;;;;;;5075001;28;20230;-76
2024/01/19 03:22:13;;;;;;;3.15;0.40;;;28.30;75.20;;;;;;5090736;28;20285;-76
2024/01/19 03:24:46;;;;;;;2.60;0.52;;;28.30;76.70;;;;;;5088222;28;20550;-75
2024/01/19 03:27:16;;;;;;;0.93;0.30;;;28.10;76.40;;;;;;5070607;28;20220;-77
2024/01/19 03:29:47;;;;;;;1.90;0.55;;;28.10;78.60;;;;;;5061795;28;20224;-76
2024/01/19 03:32:18;;;;;;;1.92;0.55;;;28.10;76.80;;;;;;5050716;28;20216;-76
2024/01/19 03:34:49;;;;;;;3.25;0.60;;;28.10;76.90;;;;;;5054511;28;20208;-76
2024/01/19 03:37:20;;;;;;;1.50;0.32;;;28.30;76.90;;;;;;5083360;28;20198;-76
2024/01/19 03:39:52;;;;;;;1.73;0.52;;;28.20;74.40;;;;;;5080735;28;20199;-76
2024/01/19 03:42:23;;;;;;;0.77;0.50;;;28.30;72.90;;;;;;5091141;28;20205;-76
2024/01/19 03:44:54;;;;;;;0.75;0.40;;;28.40;73.30;;;;;;5069312;28;20216;-76
2024/01/19 03:47:25;;;;;;;0.60;0.30;;;28.50;73.70;;;;;;5056667;28;20622;-76
2024/01/19 03:49:55;;;;;;;1.73;0.30;;;28.50;73.80;;;;;;5050113;28;20221;-77
2024/01/19 03:52:26;;;;;;;2.10;0.50;;;28.40;71.90;;;;;;5067119;28;20249;-77
2024/01/19 03:54:59;;;;;;;1.48;0.43;;;28.30;72.10;;;;;;5070358;28;20228;-77
2024/01/19 03:57:30;;;;;;;1.27;0.20;;;28.10;73.30;;;;;;5080396;28;20303;-76
2024/01/19 04:00:01;;;;;;;2.38;0.40;;;28.10;76.50;;;;;;5060990;28;20625;-77
2024/01/19 04:02:32;;;;;;;4.15;0.50;;;28.10;77.30;;;;;;5050347;28;20216;-77
2024/01/19 04:05:03;;;;;;;3.55;0.75;;;27.90;77.70;;;;;;5054138;28;20219;-77
2024/01/19 04:07:34;;;;;;;2.15;0.47;;;27.80;78.80;;;;;;5073078;28;20242;-76
2024/01/19 04:10:07;;;;;;;2.33;0.40;;;27.70;79.90;;;;;;5067756;28;20192;-76
2024/01/19 04:12:38;;;;;;;2.47;0.50;;;27.80;80.80;;;;;;5054346;28;20210;-77
2024/01/19 04:15:09;;;;;;;1.90;0.55;;;27.70;80.20;;;;;;5069640;28;20196;-77
2024/01/19 04:17:41;;;;;;;2.20;0.55;;;27.70;79.00;;;;;;5066760;28;20220;-76
2024/01/19 04:20:12;;;;;;;2.38;0.40;;;27.60;81.50;;;;;;5064839;28;20204;-76
2024/01/19 04:22:43;;;;;;;1.48;0.30;;;27.60;83.60;;;;;;5058365;28;20216;-77
2024/01/19 04:25:15;;;;;;;2.15;0.40;;;27.60;84.30;;;;;;5069546;28;20192;-77
2024/01/19 04:27:46;;;;;;;2.63;0.30;;;27.60;84.20;;;;;;5069885;28;20645;-77
2024/01/19 04:30:17;;;;;;;1.15;0.40;;;27.60;84.70;;;;;;5070141;28;20202;-77
2024/01/19 04:32:48;;;;;;;1.83;0.40;;;27.70;84.40;;;;;;5073349;28;20650;-77
2024/01/19 04:35:19;;;;;;;0.52;0.30;;;27.60;84.50;;;;;;5059238;28;20192;-77
2024/01/19 04:37:50;;;;;;;1.05;0.40;;;27.50;85.70;;;;;;5064703;28;20196;-77
2024/01/19 04:40:22;;;;;;;2.55;0.40;;;27.50;86.80;;;;;;5067506;28;20195;-77
2024/01/19 04:42:53;;;;;;;0.75;0.20;;;27.60;86.20;;;;;;5067383;28;20280;-76
2024/01/19 04:45:24;;;;;;;2.53;0.30;;;27.60;84.50;;;;;;5053550;28;20205;-76
2024/01/19 04:47:55;;;;;;;3.38;0.40;;;27.70;85.50;;;;;;5068252;28;20206;-78
2024/01/19 04:50:26;;;;;;;2.25;0.30;;;27.70;86.10;;;;;;5072845;28;20288;-77
2024/01/19 04:52:57;;;;;;;1.88;0.40;;;27.90;86.70;;;;;;5077166;28;20196;-78
2024/01/19 04:55:30;;;;;;;1.17;0.30;;;27.80;86.70;;;;;;5058616;28;20209;-75
2024/01/19 04:58:00;;;;;;;0.65;0.30;;;27.70;85.60;;;;;;5053195;28;20219;-76
2024/01/19 05:00:32;;;;;;;1.05;0.30;;;27.70;86.50;;;;;;5054731;28;20196;-76
2024/01/19 05:03:03;;;;;;;0.93;0.28;;;27.60;87.70;;;;;;5060018;28;20195;-76
2024/01/19 05:05:34;;;;;;;2.17;0.30;;;27.70;88.50;;;;;;5088021;28;20191;-77
2024/01/19 05:08:04;;;;;;;2.30;0.30;;;27.60;89.70;;;;;;5078627;28;20227;-78
2024/01/19 05:10:37;;;;;;;1.98;0.32;;;27.70;90.80;;;;;;5063140;28;20235;-76
2024/01/19 05:13:08;;;;;;;2.10;0.40;;;27.70;90.80;;;;;;5069113;28;20196;-76
2024/01/19 05:15:39;;;;;;;1.45;0.30;;;27.80;90.80;;;;;;5092718;28;20635;-77
2024/01/19 05:18:10;;;;;;;1.05;0.25;;;27.80;90.80;;;;;;5077484;28;20215;-77
2024/01/19 05:20:40;;;;;;;0.85;0.30;;;27.70;91.10;;;;;;5063231;28;20211;-76
2024/01/19 05:23:11;;;;;;;1.60;0.32;;;27.80;90.50;;;;;;5069855;28;20200;-76
2024/01/19 05:25:44;;;;;;;1.67;0.68;;;27.80;90.10;;;;;;5062126;28;20196;-77
2024/01/19 05:28:14;;;;;;;2.78;0.40;;;27.80;90.50;;;;;;5075393;28;20203;-77
2024/01/19 05:30:45;;;;;;;0.65;0.35;;;27.60;90.90;;;;;;5058849;28;20309;-78
2024/01/19 05:33:16;;;;;;;0.82;0.38;;;27.50;90.70;;;;;;5063808;28;20203;-77
2024/01/19 05:35:47;;;;;;;1.48;0.45;;;27.40;91.50;;;;;;5063215;28;20202;-77
2024/01/19 05:38:18;;;;;;;1.17;0.40;;;27.30;91.70;;;;;;5076527;28;20327;-77
2024/01/19 05:40:53;;;;;;;1.58;0.50;;;27.20;91.50;;;;;;5070001;28;20188;-76
2024/01/19 05:43:24;;;;;;;1.02;0.50;;;27.20;92.00;;;;;;5051634;28;20200;-76
2024/01/19 05:45:55;;;;;;;0.63;0.40;;;27.20;92.70;;;;;;5060103;28;20215;-76
2024/01/19 05:48:26;;;;;;;1.00;0.35;;;27.20;92.70;;;;;;5070616;28;20292;-76
2024/01/19 05:50:57;;;;;;;0.88;0.38;;;27.20;93.20;;;;;;5072129;28;20196;-76
2024/01/19 05:53:27;;;;;;;3.28;0.47;;;27.10;93.40;;;;;;5068815;28;20193;-77
2024/01/19 05:56:00;;;;;;;1.90;0.32;;;27.10;92.90;;;;;;5071917;28;20204;-77
2024/01/19 05:58:31;;;;;;;0.55;0.30;;;27.00;93.60;;;;;;5072332;28;20269;-77
2024/01/19 06:01:02;;;;;;;1.58;0.57;;;27.00;94.50;;;;;;5071877;28;20202;-77
2024/01/19 06:03:33;;;;;;;3.17;0.63;;;26.90;94.80;;;;;;5058164;28;20200;-77
2024/01/19 06:06:04;;;;;;;3.03;0.73;;;26.90;95.60;;;;;;5060635;28;20564;-77
2024/01/19 06:08:35;;;;;;;2.25;0.60;;;26.90;95.50;;;;;;5071668;28;20210;-77
2024/01/19 06:11:08;;;;;;;3.40;0.60;;;26.80;96.60;;;;;;5055859;28;20562;-76
2024/01/19 06:13:41;;;;;;;0.82;0.50;;;26.80;97.10;;;;;;5072204;28;20222;-77
2024/01/19 06:16:12;;;;;;;0.82;0.40;;;26.70;97.30;;;;;;5071760;28;20195;-75
2024/01/19 06:18:43;;;;;;;4.03;0.63;;;26.70;97.70;;;;;;5055928;28;20215;-76
2024/01/19 06:21:14;;;;;;;1.40;0.50;;;26.60;97.90;;;;;;5078136;28;20187;-76
2024/01/19 06:23:44;;;;;;;1.55;0.45;;;26.50;98.30;;;;;;5075258;28;20226;-76
2024/01/19 06:26:17;;;;;;;2.00;0.50;;;26.50;99.80;;;;;;5085399;28;20296;-76
2024/01/19 06:28:48;;;;;;;3.28;0.60;;;26.40;99.70;;;;;;5088730;28;20551;-75
2024/01/19 06:31:19;;;;;;;1.95;0.50;;;26.40;99.90;;;;;;5088878;28;20214;-76
2024/01/19 06:33:49;;;;;;;2.08;0.43;;;26.50;99.90;;;;;;5084680;28;20213;-75
2024/01/19 06:36:20;;;;;;;2.10;0.60;;;26.60;99.90;;;;;;5070786;28;20580;-76
2024/01/19 06:38:54;;;;;;;1.55;0.50;;;26.60;99.90;;;;;;5050866;28;20220;-76
2024/01/19 06:41:26;;;;;;;3.15;0.60;;;26.70;99.90;;;;;;5069592;28;20650;-75
2024/01/19 06:43:57;;;;;;;3.38;0.80;;;26.50;99.90;;;;;;5058960;28;20219;-76
2024/01/19 06:46:28;;;;;;;2.05;0.60;;;26.40;99.90;;;;;;5080617;28;20195;-76
2024/01/19 06:48:58;;;;;;;1.52;0.65;;;26.40;99.90;;;;;;5050873;28;20201;-76
2024/01/19 06:51:30;;;;;;;4.57;0.77;;;26.50;99.90;;;;;;5076908;28;20226;-76
2024/01/19 06:54:00;;;;;;;2.08;0.60;;;26.80;99.90;;;;;;5051265;28;20200;-76
2024/01/19 06:56:33;;;;;;;2.17;0.50;;;27.20;99.90;;;;;;5050855;28;20211;-76
2024/01/19 06:59:04;;;;;;;2.17;0.50;;;27.30;99.90;;;;;;5050794;28;20224;-76
2024/01/19 07:01:38;;;;;;;3.22;0.63;;;27.30;99.90;;;;;;5050099;28;20196;-75
2024/01/19 07:04:09;;;;;;;2.60;0.63;;;27.50;99.90;;;;;;5050884;28;20207;-75
2024/01/19 07:06:40;;;;;;;5.13;0.65;;;27.50;99.90;;;;;;5050731;28;20236;-75
2024/01/19 07:09:10;;;;;;;2.70;0.60;;;28.20;99.90;;;;;;5050702;28;20200;-76
2024/01/19 07:11:43;;;;;;;2.65;0.65;;;28.40;99.90;;;;;;5051311;28;20519;-76
2024/01/19 07:14:14;;;;;;;2.60;0.63;;;28.30;99.90;;;;;;5051446;28;20422;-75
2024/01/19 07:16:44;;;;;;;4.50;0.77;;;28.10;99.90;;;;;;5059222;28;20650;-75
2024/01/19 07:19:15;;;;;;;2.92;0.82;;;28.00;99.90;;;;;;5068691;28;20220;-75
2024/01/19 07:21:46;;;;;;;3.05;0.73;;;27.80;99.90;;;;;;5070423;28;20654;-75
2024/01/19 07:24:17;;;;;;;3.63;0.70;;;27.80;99.90;;;;;;5070452;28;20196;-76
2024/01/19 07:26:51;;;;;;;1.00;0.50;;;27.60;99.90;;;;;;5068569;28;20269;-75
2024/01/19 07:29:21;;;;;;;1.67;0.45;;;27.40;99.90;;;;;;5051266;28;20205;-75
2024/01/19 07:31:52;;;;;;;2.67;0.50;;;27.30;99.90;;;;;;5051011;28;20562;-75
2024/01/19 07:34:23;;;;;;;4.10;0.90;;;27.00;99.90;;;;;;5071304;28;20204;-76
2024/01/19 07:36:54;;;;;;;2.50;0.70;;;27.00;99.90;;;;;;5070405;28;20192;-77
2024/01/19 07:39:26;;;;;;;4.07;0.80;;;27.10;99.90;;;;;;5057061;28;20235;-77
2024/01/19 07:41:58;;;;;;;1.65;0.57;;;27.10;99.90;;;;;;5050369;28;20200;-77
2024/01/19 07:44:29;;;;;;;4.32;1.00;;;27.60;99.90;;;;;;5050728;28;20200;-75
2024/01/19 07:47:03;;;;;;;4.18;0.75;;;28.70;99.90;;;;;;5050429;28;20555;-75
2024/01/19 07:49:33;;;;;;;4.47;0.93;;;29.00;99.90;;;;;;5049783;28;20218;-76
2024/01/19 07:52:04;;;;;;;5.32;1.08;;;29.40;99.90;;;;;;5050816;28;20200;-75
2024/01/19 07:54:35;;;;;;;3.72;0.80;;;30.00;99.90;;;;;;5050197;28;20193;-75
2024/01/19 07:57:07;;;;;;;4.35;0.88;;;30.30;98.40;;;;;;5049927;28;20227;-75
2024/01/19 07:59:38;;;;;;;4.82;1.00;;;30.90;97.30;;;;;;5049906;28;20591;-76
2024/01/19 08:02:10;;;;;;;3.05;0.90;;;31.20;95.50;;;;;;5050470;28;20577;-76
2024/01/19 08:04:41;;;;;;;3.75;0.80;;;31.10;95.60;;;;;;5050135;28;20219;-76
2024/01/19 08:07:11;;;;;;;2.95;0.90;;;31.10;95.00;;;;;;5055133;28;20228;-76
2024/01/19 08:09:45;;;;;;;2.10;0.68;;;31.20;95.00;;;;;;5054096;28;20197;-76
2024/01/19 08:12:18;;;;;;;4.20;0.77;;;31.20;94.20;;;;;;5054554;28;20203;-76
2024/01/19 08:14:48;;;;;;;2.88;0.80;;;30.90;95.40;;;;;;5066463;28;20249;-76
2024/01/19 08:17:19;;;;;;;2.28;0.70;;;30.50;95.90;;;;;;5057915;28;20200;-75
2024/01/19 08:19:50;;;;;;;2.88;0.85;;;30.30;95.90;;;;;;5057684;28;20720;-76
2024/01/19 08:22:21;;;;;;;3.88;0.85;;;29.80;96.70;;;;;;5074356;28;20192;-75
2024/01/19 08:24:52;;;;;;;4.35;1.00;;;29.50;97.40;;;;;;5074719;28;20229;-75
2024/01/19 08:27:24;;;;;;;2.13;0.98;;;29.00;99.20;;;;;;5060175;28;20208;-75
2024/01/19 08:29:55;;;;;;;3.58;0.90;;;28.50;99.90;;;;;;5053188;28;20205;-75
2024/01/19 08:32:27;;;;;;;1.67;0.80;;;28.10;99.90;;;;;;5054089;28;20193;-76
2024/01/19 08:34:57;;;;;;;4.10;0.90;;;27.70;99.90;;;;;;5054305;28;20290;-76
2024/01/19 08:37:28;;;;;;;3.72;0.90;;;27.30;99.90;;;;;;5053925;28;20647;-76
2024/01/19 08:39:59;;;;;;;5.30;1.33;;;27.10;99.90;;;;;;5054047;28;20274;-75
2024/01/19 08:42:32;;;;;;;3.05;0.95;;;27.00;99.90;;;;;;5053774;28;20205;-76
2024/01/19 08:45:03;;;;;;;4.38;0.80;;;26.90;99.90;;;;;;5052615;28;20241;-76
2024/01/19 08:47:33;;;;;;;4.93;1.20;;;26.80;99.90;;;;;;5053354;28;20250;-76
2024/01/19 08:50:04;;;;;;;2.40;0.90;;;26.60;99.90;;;;;;5070556;28;20222;-75
2024/01/19 08:52:35;;;;;;;3.38;1.10;;;26.50;99.90;;;;;;5065049;28;20200;-76
2024/01/19 08:55:06;;;;;;;3.85;1.15;;;26.40;99.90;;;;;;5062467;28;20191;-76
2024/01/19 08:57:39;;;;;;;1.42;0.60;;;26.40;99.90;;;;;;5072977;28;20306;-76
2024/01/19 09:00:11;;;;;;;4.75;1.00;;;26.30;99.90;;;;;;5073072;28;20710;-75
2024/01/19 09:02:41;;;;;;;4.68;1.08;;;26.10;99.90;;;;;;5070470;28;20218;-76
2024/01/19 09:05:14;;;;;;;3.90;1.08;;;26.10;99.90;;;;;;5053579;28;20200;-76
2024/01/19 09:07:48;;;;;;;6.03;1.00;;;26.10;99.90;;;;;;5053942;28;20308;-75
2024/01/19 09:10:18;;;;;;;4.85;1.08;;;26.00;99.90;;;;;;5055093;28;20266;-75
2024/01/19 09:12:51;;;;;;;5.30;1.10;;;25.90;99.90;;;;;;5060179;28;20206;-76
2024/01/19 09:15:22;;;;;;;5.90;1.27;;;25.90;99.90;;;;;;5073458;28;20200;-75
2024/01/19 09:17:53;;;;;;;5.50;1.40;;;25.90;99.90;;;;;;5073433;28;20192;-76
2024/01/19 09:20:24;;;;;;;6.30;1.67;;;25.90;99.90;;;;;;5055567;28;20224;-75
2024/01/19 09:22:54;;;;;;;5.47;1.33;;;25.80;99.90;;;;;;5053391;28;20201;-75
2024/01/19 09:25:25;;;;;;;5.57;1.50;;;25.80;99.90;;;;;;5052339;28;20196;-76
2024/01/19 09:27:58;;;;;;;4.80;1.23;;;25.80;99.90;;;;;;5071415;28;20195;-76
2024/01/19 09:30:28;;;;;;;6.15;1.33;;;25.80;99.90;;;;;;5072635;28;20200;-76
2024/01/19 09:33:02;;;;;;;5.03;1.38;;;25.80;99.90;;;;;;5072483;28;20555;-76
2024/01/19 09:35:33;;;;;;;8.35;1.80;;;25.80;99.90;;;;;;5063501;28;20283;-76
2024/01/19 09:38:03;;;;;;;8.32;1.88;;;25.70;99.90;;;;;;5052478;28;20200;-76
2024/01/19 09:40:34;;;;;;;5.38;1.52;;;25.70;99.90;;;;;;5052556;28;20224;-76
2024/01/19 09:43:07;;;;;;;7.93;1.80;;;25.70;99.90;;;;;;5056358;28;20219;-76
2024/01/19 09:45:43;;;;;;;5.38;1.48;;;25.60;99.90;;;;;;5072091;28;20192;-75
2024/01/19 09:48:24;;;;;;;5.57;1.50;;;25.50;99.90;;;;;;5072453;28;20210;-76
2024/01/19 09:50:57;;;;;;;5.78;1.35;;;25.50;99.90;;;;;;5072526;28;20287;-76
2024/01/19 09:53:32;;;;;;;8.35;1.98;;;25.60;99.90;;;;;;5070836;28;20684;-76
2024/01/19 09:56:03;;;;;;;6.57;1.40;;;25.60;99.90;;;;;;5072353;28;20191;-76
2024/01/19 09:58:35;;;;;;;9.23;1.85;;;25.60;99.90;;;;;;5072273;28;20223;-76
2024/01/19 10:01:06;;;;;;;7.57;1.85;;;25.60;99.90;;;;;;5071426;28;20239;-76
2024/01/19 10:03:38;;;;;;;8.85;1.88;;;25.50;99.90;;;;;;5072058;28;20278;-76
2024/01/19 10:06:09;;;;;;;7.68;1.88;;;25.40;99.90;;;;;;5092358;28;20238;-76
2024/01/19 10:08:41;;;;;;;11.57;2.05;;;25.50;99.90;;;;;;5080685;28;20199;-76
2024/01/19 10:11:11;;;;;;;7.50;1.70;;;25.40;99.90;;;;;;5071995;28;20196;-76
2024/01/19 10:13:44;;;;;;;6.82;1.80;;;25.40;99.90;;;;;;5072391;28;20192;-75
2024/01/19 10:16:15;;;;;;;7.20;1.60;;;25.30;99.90;;;;;;5072378;28;20321;-75
2024/01/19 10:18:46;;;;;;;12.45;2.22;;;25.40;99.90;;;;;;5054158;28;20304;-76
2024/01/19 10:21:28;;;;;;;6.70;1.60;;;25.40;99.90;;;;;;5065469;28;20706;-76
2024/01/19 10:24:14;;;;;;;6.55;1.70;;;25.40;99.90;;;;;;5051952;28;20196;-76
2024/01/19 10:26:46;;;;;;;8.77;1.83;;;25.40;99.90;;;;;;5051739;28;20207;-76
2024/01/19 10:29:19;;;;;;;7.22;1.83;;;25.30;99.90;;;;;;5051389;28;20200;-76
2024/01/19 10:31:51;;;;;;;7.18;1.80;;;25.30;99.90;;;;;;5051810;28;20211;-76
2024/01/19 10:34:22;;;;;;;8.95;1.95;;;25.30;99.90;;;;;;5058062;28;20646;-75
2024/01/19 10:36:53;;;;;;;7.88;1.85;;;25.40;99.90;;;;;;5069908;28;20202;-76
2024/01/19 10:39:26;;;;;;;6.63;1.92;;;25.30;99.90;;;;;;5071812;28;20559;-75
2024/01/19 10:42:08;;;;;;;3.92;1.42;;;25.30;99.90;;;;;;5071530;28;20206;-76
2024/01/19 10:44:41;;;;;;;7.75;1.77;;;25.20;99.90;;;;;;5071231;28;20206;-76
2024/01/19 10:47:12;;;;;;;8.93;1.92;;;25.30;99.90;;;;;;5071210;28;20204;-75
2024/01/19 10:49:42;;;;;;;6.63;1.63;;;25.20;99.90;;;;;;5071060;28;20198;-75
2024/01/19 10:52:13;;;;;;;5.13;1.52;;;25.10;99.90;;;;;;5070725;28;20614;-76
2024/01/19 10:54:51;;;;;;;9.75;2.20;;;25.10;99.90;;;;;;5071020;28;20203;-76
2024/01/19 10:57:26;;;;;;;10.45;1.80;;;25.20;99.90;;;;;;5071167;28;20226;-76
2024/01/19 10:59:58;;;;;;;9.18;2.08;;;25.20;99.90;;;;;;5071053;28;20590;-75
2024/01/19 11:02:30;;;;;;;6.82;1.88;;;25.20;99.90;;;;;;5071046;28;20196;-77
2024/01/19 11:05:04;;;;;;;6.95;1.65;;;25.20;99.90;;;;;;5071469;28;20191;-75
2024/01/19 11:07:35;;;;;;;9.45;2.40;;;25.20;99.90;;;;;;5071302;28;20238;-74
2024/01/19 11:10:06;;;;;;;10.35;2.30;;;25.20;99.90;;;;;;5060183;28;20655;-75
2024/01/19 11:12:39;;;;;;;9.43;1.73;;;25.20;99.90;;;;;;5070908;28;20198;-75
2024/01/19 11:15:15;;;;;;;10.93;2.15;;;25.10;99.90;;;;;;5070540;28;20200;-75
2024/01/19 11:17:46;;;;;;;6.90;1.65;;;25.00;99.90;;;;;;5067006;28;20254;-75
2024/01/19 11:20:17;;;;;;;7.45;1.77;;;25.10;99.90;;;;;;5086215;28;20314;-76
2024/01/19 11:22:48;;;;;;;8.57;1.92;;;25.10;99.90;;;;;;5091138;28;20282;-76
2024/01/19 11:25:28;;;;;;;9.27;1.90;;;25.10;99.90;;;;;;5077870;28;20204;-76
2024/01/19 11:28:08;;;;;;;9.90;2.30;;;25.00;99.90;;;;;;5071171;28;20191;-76
2024/01/19 11:30:51;;;;;;;8.43;1.58;;;25.10;99.90;;;;;;5081133;28;20200;-76
2024/01/19 11:33:22;;;;;;;7.93;1.95;;;25.10;99.90;;;;;;5057855;28;20196;-77
2024/01/19 11:35:53;;;;;;;10.57;2.13;;;25.10;99.90;;;;;;5058923;28;20192;-76
2024/01/19 11:38:45;;;;;;;8.70;1.63;;;25.20;99.90;;;;;;5061133;28;20192;-76
2024/01/19 11:41:49;;;;;;;9.50;1.92;;;25.10;99.90;;;;;;5055039;28;20224;-76
2024/01/19 11:44:49;;;;;;;6.63;1.42;;;25.00;99.90;;;;;;5062387;28;20218;-76
2024/01/19 11:47:45;;;;;;;10.43;2.00;;;25.10;99.90;;;;;;5065289;28;20267;-76
2024/01/19 11:50:16;;;;;;;5.72;1.52;;;25.00;99.90;;;;;;5070502;28;20246;-76
2024/01/19 11:52:48;;;;;;;8.70;1.83;;;25.00;99.90;;;;;;5071843;28;20716;-76
2024/01/19 11:55:48;;;;;;;8.23;1.70;;;24.90;99.90;;;;;;5068892;28;20192;-76
2024/01/19 11:58:39;;;;;;;11.70;2.45;;;25.00;99.90;;;;;;5059524;28;20192;-76
2024/01/19 12:01:10;;;;;;;5.50;1.70;;;25.00;99.90;;;;;;5061009;28;20255;-76
2024/01/19 12:03:43;;;;;;;6.25;1.65;;;24.90;99.90;;;;;;5050548;28;20203;-76
2024/01/19 12:06:17;;;;;;;7.63;1.75;;;24.90;99.90;;;;;;5057863;28;20220;-76
2024/01/19 12:09:00;;;;;;;8.10;1.60;;;24.90;99.90;;;;;;5066505;28;20204;-76
2024/01/19 12:11:31;;;;;;;8.65;1.55;;;24.90;99.90;;;;;;5070419;28;20187;-76
2024/01/19 12:14:03;;;;;;;6.43;1.67;;;25.00;99.90;;;;;;5069298;28;20196;-76
2024/01/19 12:16:34;;;;;;;5.65;1.50;;;25.00;99.90;;;;;;5049806;28;20280;-77
2024/01/19 12:19:07;;;;;;;7.88;1.95;;;25.00;99.90;;;;;;5050116;28;20598;-76
2024/01/19 12:21:37;;;;;;;9.80;1.77;;;25.00;99.90;;;;;;5049918;28;20220;-76
2024/01/19 12:24:08;;;;;;;8.73;1.75;;;25.00;99.90;;;;;;5050014;28;20201;-76
2024/01/19 12:26:39;;;;;;;7.60;1.90;;;25.00;99.90;;;;;;5069036;28;20246;-77
2024/01/19 12:29:10;;;;;;;5.97;1.50;;;24.90;99.90;;;;;;5067677;28;20680;-76
2024/01/19 12:31:41;;;;;;;8.00;1.80;;;24.90;99.90;;;;;;5067082;28;20196;-76
2024/01/19 12:34:18;;;;;;;9.52;1.67;;;24.90;99.90;;;;;;5057605;28;20200;-76
2024/01/19 12:36:52;;;;;;;8.55;1.70;;;24.90;99.90;;;;;;5065227;28;20654;-77
2024/01/19 12:39:25;;;;;;;7.05;1.63;;;24.80;99.90;;;;;;5069979;28;20204;-76
2024/01/19 12:42:02;;;;;;;5.85;1.52;;;24.80;99.90;;;;;;5072169;28;20219;-76
2024/01/19 12:44:33;;;;;;;10.90;1.80;;;24.80;99.90;;;;;;5077988;28;20693;-77
2024/01/19 12:47:04;;;;;;;8.23;1.60;;;24.80;99.90;;;;;;5058648;28;20192;-77
2024/01/19 12:49:37;;;;;;;8.63;1.80;;;24.70;99.90;;;;;;5069136;28;20674;-76
2024/01/19 12:52:08;;;;;;;8.15;1.75;;;24.70;99.90;;;;;;5062624;28;20220;-77
2024/01/19 12:54:47;;;;;;;5.97;1.45;;;24.70;99.90;;;;;;5073355;28;20196;-77
2024/01/19 12:57:22;;;;;;;7.72;1.85;;;24.80;99.90;;;;;;5072740;28;20654;-77
2024/01/19 13:00:11;;;;;;;7.38;1.23;;;24.80;99.90;;;;;;5069356;28;20196;-77
2024/01/19 13:02:42;;;;;;;7.30;1.63;;;24.80;99.90;;;;;;5075700;28;20283;-77
2024/01/19 13:05:25;;;;;;;8.57;1.70;;;24.70;99.90;;;;;;5094243;28;20230;-77
2024/01/19 13:08:01;;;;;;;7.60;1.50;;;24.70;99.90;;;;;;5067711;28;20690;-76
2024/01/19 13:10:32;;;;;;;7.47;1.58;;;24.70;99.90;;;;;;5069043;28;20200;-77